createdAt,value
2019-05-11T00:02:24.778Z,11.90
2019-05-11T00:07:30.085Z,12.00
2019-05-11T00:12:34.918Z,11.90
2019-05-11T00:17:39.769Z,11.90
2019-05-11T00:23:04.070Z,11.90
2019-05-11T00:28:08.932Z,11.80
2019-05-11T00:33:13.748Z,11.80
2019-05-11T00:38:18.506Z,11.70
2019-05-11T00:43:23.344Z,11.70
2019-05-11T00:48:28.180Z,11.70
2019-05-11T00:53:33.228Z,11.70
2019-05-11T00:58:38.101Z,11.70
2019-05-11T01:03:42.983Z,11.60
2019-05-11T01:08:48.621Z,11.60
2019-05-11T01:13:54.081Z,11.50
2019-05-11T01:18:59.848Z,11.50
2019-05-11T01:24:05.259Z,11.30
2019-05-11T01:29:10.829Z,11.30
2019-05-11T01:34:15.702Z,11.10
2019-05-11T01:39:20.529Z,11.10
2019-05-11T01:44:25.389Z,11.00
2019-05-11T01:49:30.243Z,10.90
2019-05-11T01:54:35.020Z,10.80
2019-05-11T01:59:57.423Z,10.70
2019-05-11T02:05:20.237Z,10.60
2019-05-11T02:10:25.273Z,10.50
2019-05-11T02:15:30.215Z,10.40
2019-05-11T02:20:34.975Z,10.20
2019-05-11T02:25:39.805Z,10.10
2019-05-11T02:30:44.650Z,10.00
2019-05-11T02:35:49.493Z,10.00
2019-05-11T02:40:54.343Z,10.10
2019-05-11T02:45:59.177Z,10.20
2019-05-11T02:51:04.436Z,10.30
2019-05-11T02:56:09.191Z,10.40
2019-05-11T03:01:14.043Z,10.50
2019-05-11T03:06:18.865Z,10.50
2019-05-11T03:11:23.636Z,10.40
2019-05-11T03:16:28.406Z,10.40
2019-05-11T03:21:33.251Z,10.40
2019-05-11T03:26:38.030Z,10.30
2019-05-11T03:31:42.858Z,10.30
2019-05-11T03:36:47.568Z,10.30
2019-05-11T03:41:52.334Z,10.30
2019-05-11T03:46:57.172Z,10.40
2019-05-11T03:52:02.018Z,10.50
2019-05-11T03:57:06.859Z,10.40
2019-05-11T04:02:11.706Z,10.40
2019-05-11T04:07:16.560Z,10.50
2019-05-11T04:12:34.209Z,10.60
2019-05-11T04:17:27.809Z,10.80
2019-05-11T04:22:32.632Z,10.90
2019-05-11T04:27:37.398Z,11.00
2019-05-11T04:32:42.255Z,11.10
2019-05-11T04:37:47.001Z,11.10
2019-05-11T04:42:55.666Z,11.30
2019-05-11T04:47:58.300Z,11.30
2019-05-11T04:53:03.074Z,11.30
2019-05-11T04:58:07.906Z,11.50
2019-05-11T05:03:12.822Z,11.70
2019-05-11T05:08:21.167Z,11.50
2019-05-11T05:13:29.575Z,11.50
2019-05-11T05:18:32.751Z,11.60
2019-05-11T05:23:37.610Z,11.60
2019-05-11T05:28:45.589Z,11.80
2019-05-11T05:33:48.874Z,11.90
2019-05-11T05:38:53.736Z,11.70
2019-05-11T05:43:59.058Z,11.90
2019-05-11T05:49:03.834Z,12.10
2019-05-11T05:54:09.415Z,12.40
2019-05-11T05:59:14.264Z,12.60
2019-05-11T06:04:19.040Z,13.00
2019-05-11T06:09:23.753Z,13.10
2019-05-11T06:14:28.629Z,13.10
2019-05-11T06:19:33.478Z,13.50
2019-05-11T06:24:38.340Z,13.40
2019-05-11T06:29:43.121Z,13.40
2019-05-11T06:34:47.967Z,13.40
2019-05-11T06:39:52.913Z,13.60
2019-05-11T06:44:57.752Z,13.50
2019-05-11T06:50:02.604Z,13.50
2019-05-11T06:55:07.454Z,13.50
2019-05-11T07:00:13.041Z,13.50
2019-05-11T07:05:17.881Z,13.60
2019-05-11T07:10:22.787Z,13.60
2019-05-11T07:15:28.437Z,13.70
2019-05-11T07:20:48.079Z,13.60
2019-05-11T07:25:39.727Z,13.50
2019-05-11T07:30:46.042Z,13.60
2019-05-11T07:35:52.148Z,13.60
2019-05-11T07:40:58.228Z,13.60
2019-05-11T07:46:03.321Z,13.30
2019-05-11T07:51:08.946Z,13.20
2019-05-11T07:56:14.081Z,13.40
2019-05-11T08:01:19.120Z,13.50
2019-05-11T08:06:24.150Z,13.70
2019-05-11T08:11:31.510Z,13.50
2019-05-11T08:16:35.455Z,13.40
2019-05-11T08:21:40.199Z,13.60
2019-05-11T08:26:45.041Z,13.80
2019-05-11T08:31:49.885Z,13.90
2019-05-11T08:36:54.806Z,14.00
2019-05-11T08:42:02.762Z,14.40
2019-05-11T08:47:08.363Z,14.60
2019-05-11T08:52:12.575Z,14.60
2019-05-11T08:57:18.068Z,14.50
2019-05-11T09:02:23.010Z,14.90
2019-05-11T09:07:27.940Z,15.10
2019-05-11T09:12:32.797Z,15.40
2019-05-11T09:17:38.281Z,15.30
2019-05-11T09:22:43.321Z,15.40
2019-05-11T09:27:48.439Z,15.20
2019-05-11T09:32:53.425Z,15.10
2019-05-11T09:37:58.925Z,15.20
2019-05-11T09:43:04.002Z,15.40
2019-05-11T09:48:08.833Z,14.90
2019-05-11T09:53:13.652Z,14.50
2019-05-11T09:58:19.736Z,14.50
2019-05-11T10:03:25.186Z,15.00
2019-05-11T10:08:29.960Z,15.30
2019-05-11T10:13:34.828Z,15.10
2019-05-11T10:18:39.622Z,15.10
2019-05-11T10:23:44.489Z,15.20
2019-05-11T10:28:49.344Z,15.20
2019-05-11T10:33:54.231Z,15.10
2019-05-11T10:38:59.141Z,15.20
2019-05-11T10:44:04.018Z,15.60
2019-05-11T10:49:21.060Z,15.90
2019-05-11T10:54:28.470Z,15.50
2019-05-11T10:59:32.388Z,15.30
2019-05-11T11:04:38.034Z,15.20
2019-05-11T11:09:43.076Z,16.00
2019-05-11T11:14:48.331Z,17.10
2019-05-11T11:19:54.216Z,17.20
2019-05-11T11:24:59.143Z,17.00
2019-05-11T11:30:08.965Z,17.80
2019-05-11T11:35:12.874Z,17.80
2019-05-11T11:40:18.047Z,16.90
2019-05-11T11:45:22.851Z,17.30
2019-05-11T11:50:28.322Z,18.20
2019-05-11T11:55:33.396Z,18.80
2019-05-11T12:00:39.101Z,19.00
2019-05-11T12:05:44.135Z,19.60
2019-05-11T12:10:49.187Z,19.10
2019-05-11T12:15:54.285Z,18.60
2019-05-11T12:20:59.126Z,18.40
2019-05-11T12:26:03.872Z,18.30
2019-05-11T12:31:08.832Z,18.40
2019-05-11T12:36:13.674Z,18.80
2019-05-11T12:41:19.184Z,19.40
2019-05-11T12:46:24.216Z,18.80
2019-05-11T12:51:28.970Z,19.20
2019-05-11T12:56:33.796Z,18.60
2019-05-11T13:01:38.620Z,18.20
2019-05-11T13:06:43.475Z,18.20
2019-05-11T13:11:48.405Z,18.10
2019-05-11T13:16:53.259Z,18.40
2019-05-11T13:21:58.970Z,19.00
2019-05-11T13:27:04.017Z,19.10
2019-05-11T13:32:08.769Z,18.60
2019-05-11T13:37:13.605Z,18.30
2019-05-11T13:42:19.531Z,18.70
2019-05-11T13:47:25.065Z,18.80
2019-05-11T13:52:29.954Z,19.30
2019-05-11T13:57:37.801Z,19.80
2019-05-11T14:02:42.233Z,19.90
2019-05-11T14:07:48.277Z,19.50
2019-05-11T14:12:53.434Z,20.00
2019-05-11T14:18:07.841Z,20.00
2019-05-11T14:23:04.720Z,19.40
2019-05-11T14:28:09.558Z,19.30
2019-05-11T14:33:17.983Z,19.60
2019-05-11T14:38:20.879Z,19.80
2019-05-11T14:43:27.608Z,20.00
2019-05-11T14:48:32.101Z,19.70
2019-05-11T14:53:37.843Z,19.60
2019-05-11T14:58:42.877Z,19.20
2019-05-11T15:03:48.668Z,19.30
2019-05-11T15:08:53.869Z,18.80
2019-05-11T15:13:58.621Z,18.50
2019-05-11T15:19:03.374Z,18.70
2019-05-11T15:24:09.070Z,18.70
2019-05-11T15:29:14.428Z,18.60
2019-05-11T15:34:19.384Z,18.60
2019-05-11T15:39:24.145Z,18.50
2019-05-11T15:44:28.980Z,18.50
2019-05-11T15:49:33.808Z,18.50
2019-05-11T15:54:38.746Z,18.50
2019-05-11T15:59:43.582Z,18.50
2019-05-11T16:04:49.262Z,18.20
2019-05-11T16:09:54.586Z,18.10
2019-05-11T16:14:59.418Z,17.60
2019-05-11T16:20:08.731Z,17.80
2019-05-11T16:25:13.535Z,17.80
2019-05-11T16:30:21.613Z,17.70
2019-05-11T16:35:24.931Z,17.60
2019-05-11T16:40:29.790Z,17.60
2019-05-11T16:45:34.612Z,17.60
2019-05-11T16:50:39.444Z,17.50
2019-05-11T16:55:44.445Z,17.40
2019-05-11T17:00:49.335Z,17.30
2019-05-11T17:05:54.202Z,17.20
2019-05-11T17:10:59.585Z,17.20
2019-05-11T17:16:08.634Z,17.20
2019-05-11T17:21:13.032Z,17.00
2019-05-11T17:26:18.986Z,16.90
2019-05-11T17:31:24.346Z,16.80
2019-05-11T17:36:29.158Z,16.70
2019-05-11T17:41:34.049Z,16.70
2019-05-11T17:46:38.805Z,16.60
2019-05-11T17:51:43.506Z,16.60
2019-05-11T17:56:48.461Z,16.50
2019-05-11T18:01:53.303Z,16.50
2019-05-11T18:06:58.854Z,16.40
2019-05-11T18:12:03.983Z,16.40
2019-05-11T18:17:10.087Z,16.20
2019-05-11T18:22:17.670Z,16.00
2019-05-11T18:27:21.738Z,15.80
2019-05-11T18:32:28.399Z,15.70
2019-05-11T18:37:33.085Z,15.50
2019-05-11T18:42:38.419Z,15.30
2019-05-11T18:47:43.620Z,15.10
2019-05-11T18:52:48.980Z,15.00
2019-05-11T18:57:54.250Z,14.90
2019-05-11T19:02:59.096Z,14.80
2019-05-11T19:08:03.951Z,14.70
2019-05-11T19:13:08.871Z,14.60
2019-05-11T19:18:13.706Z,14.50
2019-05-11T19:23:19.376Z,14.50
2019-05-11T19:28:25.098Z,14.50
2019-05-11T19:33:29.879Z,14.50
2019-05-11T19:38:34.664Z,14.40
2019-05-11T19:43:39.447Z,14.30
2019-05-11T19:48:44.290Z,14.30
2019-05-11T19:53:49.152Z,14.20
2019-05-11T19:58:54.010Z,14.20
2019-05-11T20:03:59.084Z,14.20
2019-05-11T20:09:08.213Z,14.20
2019-05-11T20:14:12.687Z,14.10
2019-05-11T20:19:19.241Z,14.10
2019-05-11T20:24:25.172Z,14.00
2019-05-11T20:29:30.182Z,14.00
2019-05-11T20:34:35.040Z,13.90
2019-05-11T20:39:39.840Z,13.80
2019-05-11T20:44:44.666Z,13.70
2019-05-11T20:49:49.525Z,13.70
2019-05-11T20:54:55.555Z,13.60
2019-05-11T21:00:00.399Z,13.40
2019-05-11T21:05:09.059Z,13.30
2019-05-11T21:10:15.387Z,13.10
2019-05-11T21:15:21.723Z,13.00
2019-05-11T21:20:28.520Z,12.90
2019-05-11T21:25:32.972Z,12.90
2019-05-11T21:30:39.925Z,12.90
2019-05-11T21:35:44.298Z,12.80
2019-05-11T21:40:49.065Z,12.80
2019-05-11T21:45:53.896Z,12.70
2019-05-11T21:50:59.975Z,12.60
2019-05-11T21:56:04.925Z,12.60
2019-05-11T22:01:11.912Z,12.50
2019-05-11T22:06:16.850Z,12.40
2019-05-11T22:11:21.679Z,12.30
2019-05-11T22:16:29.799Z,12.30
2019-05-11T22:21:32.980Z,12.30
2019-05-11T22:26:38.075Z,12.20
2019-05-11T22:31:42.967Z,12.20
2019-05-11T22:36:47.992Z,12.10
2019-05-11T22:41:52.868Z,12.00
2019-05-11T22:46:58.262Z,11.90
2019-05-11T22:52:03.179Z,11.80
2019-05-11T22:57:08.231Z,11.70
2019-05-11T23:02:13.255Z,11.50
2019-05-11T23:07:18.585Z,11.50
2019-05-11T23:12:23.666Z,11.50
2019-05-11T23:17:28.844Z,11.50
2019-05-11T23:22:50.717Z,11.30
2019-05-11T23:27:41.698Z,11.30
2019-05-11T23:32:48.512Z,11.20
2019-05-11T23:37:52.914Z,11.10
2019-05-11T23:42:57.966Z,11.10
2019-05-11T23:48:02.920Z,11.00
2019-05-11T23:53:10.164Z,11.00
2019-05-11T23:58:14.213Z,10.90
